createdAt,value
2023-05-09T00:00:58.645Z,44.49
2023-05-09T00:01:58.798Z,44.48
2023-05-09T00:02:58.777Z,44.48
2023-05-09T00:03:58.839Z,44.46
2023-05-09T00:04:58.874Z,44.48
2023-05-09T00:05:58.968Z,44.44
2023-05-09T00:06:58.960Z,44.47
2023-05-09T00:07:59.016Z,44.49
2023-05-09T00:08:59.057Z,44.46
2023-05-09T00:09:59.103Z,44.47
2023-05-09T00:10:59.156Z,44.43
2023-05-09T00:11:59.207Z,44.46
2023-05-09T00:12:59.306Z,44.44
2023-05-09T00:13:59.306Z,44.45
2023-05-09T00:14:59.344Z,44.45
2023-05-09T00:15:59.403Z,44.44
2023-05-09T00:16:59.455Z,44.43
2023-05-09T00:17:59.697Z,44.44
2023-05-09T00:18:59.525Z,44.42
2023-05-09T00:19:59.578Z,44.43
2023-05-09T00:20:59.629Z,44.43
2023-05-09T00:21:59.673Z,44.42
2023-05-09T00:22:59.757Z,44.43
2023-05-09T00:23:59.781Z,44.45
2023-05-09T00:24:59.825Z,44.42
2023-05-09T00:25:59.872Z,44.43
2023-05-09T00:26:59.916Z,44.42
2023-05-09T00:27:59.965Z,44.43
2023-05-09T00:29:00.014Z,44.46
2023-05-09T00:30:00.503Z,44.44
2023-05-09T00:31:00.250Z,44.44
2023-05-09T00:32:00.241Z,44.41
2023-05-09T00:33:00.263Z,44.41
2023-05-09T00:34:00.330Z,44.43
2023-05-09T00:35:00.300Z,44.41
2023-05-09T00:36:00.352Z,44.41
2023-05-09T00:37:00.389Z,44.45
2023-05-09T00:38:00.437Z,44.41
2023-05-09T00:39:00.478Z,44.45
2023-05-09T00:40:00.544Z,44.41
2023-05-09T00:41:00.594Z,44.41
2023-05-09T00:42:00.627Z,44.40
2023-05-09T00:43:00.681Z,44.40
2023-05-09T00:44:00.719Z,44.41
2023-05-09T00:45:01.015Z,44.40
2023-05-09T00:46:00.848Z,44.40
2023-05-09T00:47:00.876Z,44.39
2023-05-09T00:48:00.977Z,44.39
2023-05-09T00:49:00.969Z,44.38
2023-05-09T00:50:01.107Z,44.38
2023-05-09T00:51:01.058Z,44.36
2023-05-09T00:52:01.108Z,44.40
2023-05-09T00:53:01.153Z,44.38
2023-05-09T00:54:01.206Z,44.37
2023-05-09T00:55:01.245Z,44.40
2023-05-09T00:56:01.291Z,44.39
2023-05-09T00:57:01.389Z,44.36
2023-05-09T00:58:01.394Z,44.37
2023-05-09T00:59:01.440Z,44.36
2023-05-09T01:00:01.498Z,44.35
2023-05-09T01:01:01.571Z,44.38
2023-05-09T01:02:01.595Z,44.39
2023-05-09T01:03:01.702Z,44.39
2023-05-09T01:04:01.689Z,44.35
2023-05-09T01:05:01.739Z,44.36
2023-05-09T01:06:01.789Z,44.34
2023-05-09T01:07:01.845Z,44.36
2023-05-09T01:08:01.904Z,44.36
2023-05-09T01:09:01.943Z,44.32
2023-05-09T01:10:01.989Z,44.34
2023-05-09T01:11:02.041Z,44.32
2023-05-09T01:12:02.085Z,44.34
2023-05-09T01:13:02.211Z,44.33
2023-05-09T01:14:02.202Z,44.33
2023-05-09T01:15:02.252Z,44.34
2023-05-09T01:16:02.316Z,44.36
2023-05-09T01:17:02.335Z,44.31
2023-05-09T01:18:02.427Z,44.32
2023-05-09T01:19:02.445Z,44.31
2023-05-09T01:20:02.520Z,44.28
2023-05-09T01:21:02.533Z,44.30
2023-05-09T01:22:02.669Z,44.27
2023-05-09T01:23:02.646Z,44.32
2023-05-09T01:24:02.691Z,44.30
2023-05-09T01:25:02.728Z,44.33
2023-05-09T01:26:02.787Z,44.32
2023-05-09T01:27:02.831Z,44.29
2023-05-09T01:28:02.898Z,44.30
2023-05-09T01:29:02.936Z,44.27
2023-05-09T01:30:03.031Z,44.31
2023-05-09T01:31:03.200Z,44.31
2023-05-09T01:32:03.105Z,44.28
2023-05-09T01:33:03.177Z,44.32
2023-05-09T01:34:03.210Z,44.33
2023-05-09T01:35:03.267Z,44.29
2023-05-09T01:36:03.319Z,44.28
2023-05-09T01:37:03.352Z,44.28
2023-05-09T01:38:03.496Z,44.30
2023-05-09T01:39:03.462Z,44.30
2023-05-09T01:40:03.526Z,44.27
2023-05-09T01:41:03.548Z,44.29
2023-05-09T01:42:03.607Z,44.25
2023-05-09T01:43:03.660Z,44.27
2023-05-09T01:44:03.762Z,44.26
2023-05-09T01:45:03.763Z,44.26
2023-05-09T01:46:03.831Z,44.27
2023-05-09T01:47:03.871Z,44.27
2023-05-09T01:48:03.947Z,44.26
2023-05-09T01:49:03.958Z,44.27
2023-05-09T01:50:04.013Z,44.24
2023-05-09T01:51:04.072Z,44.24
2023-05-09T01:52:04.118Z,44.26
2023-05-09T01:53:04.164Z,44.27
2023-05-09T01:54:04.307Z,44.25
2023-05-09T01:55:04.271Z,44.26
2023-05-09T01:56:04.301Z,44.24
2023-05-09T01:57:04.369Z,44.27
2023-05-09T01:58:04.427Z,44.24
2023-05-09T01:59:04.457Z,44.23
2023-05-09T02:00:04.513Z,44.25
2023-05-09T02:01:04.639Z,44.24
2023-05-09T02:02:04.635Z,44.25
2023-05-09T02:03:04.707Z,44.25
2023-05-09T02:04:04.698Z,44.25
2023-05-09T02:05:04.749Z,44.23
2023-05-09T02:06:04.803Z,44.23
2023-05-09T02:07:04.863Z,44.24
2023-05-09T02:08:04.898Z,44.23
2023-05-09T02:09:04.954Z,44.22
2023-05-09T02:10:05.110Z,44.24
2023-05-09T02:11:05.920Z,44.21
2023-05-09T02:12:05.086Z,44.22
2023-05-09T02:13:05.202Z,44.21
2023-05-09T02:14:05.194Z,44.23
2023-05-09T02:15:05.243Z,44.19
2023-05-09T02:16:05.301Z,44.20
2023-05-09T02:17:05.378Z,44.21
2023-05-09T02:18:05.437Z,44.22
2023-05-09T02:19:05.426Z,44.20
2023-05-09T02:20:05.473Z,44.19
2023-05-09T02:21:05.554Z,44.22
2023-05-09T02:22:05.576Z,44.21
2023-05-09T02:23:05.625Z,44.20
2023-05-09T02:24:05.691Z,44.20
2023-05-09T02:25:05.715Z,44.19
2023-05-09T02:26:05.912Z,44.17
2023-05-09T02:27:05.805Z,44.18
2023-05-09T02:28:05.942Z,44.18
2023-05-09T02:29:05.960Z,44.17
2023-05-09T02:30:05.970Z,44.20
2023-05-09T02:31:06.061Z,44.16
2023-05-09T02:32:06.068Z,44.18
2023-05-09T02:33:06.251Z,44.17
2023-05-09T02:34:06.189Z,44.19
2023-05-09T02:35:06.204Z,44.19
2023-05-09T02:36:06.257Z,44.17
2023-05-09T02:37:06.308Z,44.17
2023-05-09T02:38:06.362Z,44.16
2023-05-09T02:39:06.407Z,44.15
2023-05-09T02:40:06.491Z,44.14
2023-05-09T02:41:06.507Z,44.17
2023-05-09T02:42:06.645Z,44.16
2023-05-09T02:43:06.604Z,44.16
2023-05-09T02:44:06.657Z,44.15
2023-05-09T02:45:06.703Z,44.14
2023-05-09T02:46:06.785Z,44.14
2023-05-09T02:47:06.811Z,44.14
2023-05-09T02:48:08.733Z,44.14
2023-05-09T02:49:06.884Z,44.15
2023-05-09T02:50:07.009Z,44.17
2023-05-09T02:51:06.980Z,44.14
2023-05-09T02:52:07.035Z,44.15
2023-05-09T02:53:07.087Z,44.16
2023-05-09T02:54:07.149Z,44.14
2023-05-09T02:55:07.186Z,44.11
2023-05-09T02:56:07.227Z,44.12
2023-05-09T02:57:07.282Z,44.15
2023-05-09T02:58:14.077Z,44.13
2023-05-09T02:59:08.336Z,44.14
2023-05-09T03:00:07.385Z,44.12
2023-05-09T03:01:07.322Z,44.14
2023-05-09T03:02:07.306Z,44.17
2023-05-09T03:03:07.362Z,44.12
2023-05-09T03:04:07.284Z,44.12
2023-05-09T03:05:07.289Z,44.11
2023-05-09T03:06:07.271Z,44.12
2023-05-09T03:07:07.283Z,44.12
2023-05-09T03:08:07.332Z,44.11
2023-05-09T03:09:07.414Z,44.12
2023-05-09T03:10:07.455Z,44.11
2023-05-09T03:11:07.504Z,44.12
2023-05-09T03:12:07.569Z,44.12
2023-05-09T03:13:07.672Z,44.12
2023-05-09T03:14:07.741Z,44.10
2023-05-09T03:15:07.722Z,44.12
2023-05-09T03:16:07.794Z,44.10
2023-05-09T03:17:07.801Z,44.10
2023-05-09T03:18:07.891Z,44.09
2023-05-09T03:19:07.906Z,44.11
2023-05-09T03:20:07.954Z,44.08
2023-05-09T03:21:08.020Z,44.08
2023-05-09T03:22:08.079Z,44.10
2023-05-09T03:23:09.001Z,44.09
2023-05-09T03:24:08.188Z,44.07
2023-05-09T03:25:08.258Z,44.09
2023-05-09T03:26:08.294Z,44.07
2023-05-09T03:27:08.349Z,44.09
2023-05-09T03:28:08.405Z,44.12
2023-05-09T03:29:08.460Z,44.08
2023-05-09T03:30:08.607Z,44.06
2023-05-09T03:31:08.578Z,44.11
2023-05-09T03:32:08.627Z,44.06
2023-05-09T03:33:08.699Z,44.07
2023-05-09T03:34:08.731Z,44.07
2023-05-09T03:35:08.775Z,44.07
2023-05-09T03:36:08.844Z,44.07
2023-05-09T03:37:08.876Z,44.07
2023-05-09T03:38:08.925Z,44.05
2023-05-09T03:39:08.991Z,44.08
2023-05-09T03:40:09.035Z,44.07
2023-05-09T03:41:09.098Z,44.07
2023-05-09T03:42:09.116Z,44.07
2023-05-09T03:43:09.178Z,44.05
2023-05-09T03:44:09.227Z,44.07
2023-05-09T03:45:09.270Z,44.09
2023-05-09T03:46:09.441Z,44.05
2023-05-09T03:47:09.376Z,44.05
2023-05-09T03:48:09.457Z,44.04
2023-05-09T03:49:09.484Z,44.06
2023-05-09T03:50:09.536Z,44.06
2023-05-09T03:51:09.585Z,44.04
2023-05-09T03:52:09.666Z,44.05
2023-05-09T03:53:09.700Z,44.05
2023-05-09T03:54:09.753Z,44.04
2023-05-09T03:55:09.827Z,44.04
2023-05-09T03:56:09.859Z,44.04
2023-05-09T03:57:09.957Z,44.03
2023-05-09T03:58:09.969Z,44.02
2023-05-09T03:59:10.013Z,44.02
2023-05-09T04:00:10.080Z,44.01
2023-05-09T04:01:10.120Z,44.04
2023-05-09T04:02:10.210Z,44.05
2023-05-09T04:03:10.469Z,44.04
2023-05-09T04:04:10.355Z,44.02
2023-05-09T04:05:10.349Z,44.01
2023-05-09T04:06:10.386Z,44.01
2023-05-09T04:07:10.442Z,44.02
2023-05-09T04:08:10.495Z,44.02
2023-05-09T04:09:10.557Z,44.02
2023-05-09T04:10:10.596Z,44.01
2023-05-09T04:11:10.653Z,44.00
2023-05-09T04:12:10.709Z,44.00
2023-05-09T04:13:10.809Z,44.01
2023-05-09T04:14:10.825Z,44.00
2023-05-09T04:15:10.869Z,44.00
2023-05-09T04:16:10.955Z,44.01
2023-05-09T04:17:11.017Z,44.02
2023-05-09T04:18:11.128Z,44.00
2023-05-09T04:19:11.125Z,44.00
2023-05-09T04:20:11.150Z,44.00
2023-05-09T04:21:11.203Z,44.03
2023-05-09T04:22:11.252Z,44.01
2023-05-09T04:23:11.320Z,44.01
2023-05-09T04:24:11.365Z,44.04
2023-05-09T04:25:11.423Z,43.98
2023-05-09T04:26:11.487Z,43.97
2023-05-09T04:27:11.528Z,44.02
2023-05-09T04:28:11.586Z,44.03
2023-05-09T04:29:11.652Z,44.03
2023-05-09T04:30:11.694Z,44.02
2023-05-09T04:31:11.784Z,44.00
2023-05-09T04:32:11.839Z,43.96
2023-05-09T04:33:11.870Z,43.96
2023-05-09T04:34:12.021Z,43.96
2023-05-09T04:35:12.134Z,43.99
2023-05-09T04:36:12.031Z,44.00
2023-05-09T04:37:12.088Z,43.96
2023-05-09T04:38:12.150Z,43.98
2023-05-09T04:39:12.203Z,43.95
2023-05-09T04:40:12.257Z,43.96
2023-05-09T04:41:12.321Z,43.96
2023-05-09T04:42:12.383Z,43.98
2023-05-09T04:43:12.972Z,43.98
2023-05-09T04:44:12.483Z,43.99
2023-05-09T04:45:12.842Z,43.97
2023-05-09T04:46:12.607Z,43.95
2023-05-09T04:47:12.654Z,43.96
2023-05-09T04:48:12.700Z,43.95
2023-05-09T04:49:12.774Z,43.94
2023-05-09T04:50:12.889Z,43.96
2023-05-09T04:51:12.858Z,43.97
2023-05-09T04:52:12.911Z,43.97
2023-05-09T04:53:12.955Z,43.97
2023-05-09T04:54:13.018Z,43.96
2023-05-09T04:55:13.221Z,44.00
2023-05-09T04:56:13.109Z,43.95
2023-05-09T04:57:17.736Z,43.96
2023-05-09T04:58:14.170Z,43.95
2023-05-09T04:59:13.165Z,43.96
2023-05-09T05:00:13.150Z,43.94
2023-05-09T05:01:13.198Z,43.98
2023-05-09T05:02:13.162Z,44.13
2023-05-09T05:03:13.123Z,44.09
2023-05-09T05:04:13.175Z,43.99
2023-05-09T05:05:13.118Z,43.98
2023-05-09T05:06:13.189Z,43.97
2023-05-09T05:07:13.133Z,43.97
2023-05-09T05:08:13.189Z,43.98
2023-05-09T05:09:13.244Z,44.00
2023-05-09T05:10:13.314Z,44.03
2023-05-09T05:11:13.347Z,43.99
2023-05-09T05:12:13.752Z,43.98
2023-05-09T05:13:13.983Z,44.02
2023-05-09T05:14:13.656Z,43.98
2023-05-09T05:15:13.809Z,43.99
2023-05-09T05:16:13.686Z,44.03
2023-05-09T05:17:13.705Z,44.31
2023-05-09T05:18:13.770Z,44.32
2023-05-09T05:19:13.812Z,44.41
2023-05-09T05:20:13.861Z,44.31
2023-05-09T05:21:13.937Z,44.34
2023-05-09T05:22:14.217Z,44.26
2023-05-09T05:23:14.004Z,44.28
2023-05-09T05:24:14.051Z,44.36
2023-05-09T05:25:14.286Z,44.42
2023-05-09T05:26:14.138Z,44.57
2023-05-09T05:27:14.208Z,44.70
2023-05-09T05:28:14.266Z,44.71
2023-05-09T05:29:14.342Z,44.83
2023-05-09T05:30:14.398Z,44.79
2023-05-09T05:31:14.470Z,44.64
2023-05-09T05:32:14.653Z,44.71
2023-05-09T05:33:14.553Z,44.74
2023-05-09T05:34:14.624Z,44.77
2023-05-09T05:35:14.972Z,44.85
2023-05-09T05:36:14.721Z,44.97
2023-05-09T05:37:14.754Z,45.13
2023-05-09T05:38:14.906Z,45.26
2023-05-09T05:39:14.861Z,45.32
2023-05-09T05:40:14.909Z,45.39
2023-05-09T05:41:14.975Z,45.40
2023-05-09T05:42:15.031Z,45.62
2023-05-09T05:43:15.113Z,45.58
2023-05-09T05:44:15.146Z,45.68
2023-05-09T05:45:15.474Z,45.80
2023-05-09T05:46:15.256Z,45.77
2023-05-09T05:47:15.295Z,45.81
2023-05-09T05:48:15.357Z,45.76
2023-05-09T05:49:15.400Z,45.75
2023-05-09T05:50:15.452Z,45.75
2023-05-09T05:51:15.536Z,45.72
2023-05-09T05:52:15.564Z,45.68
2023-05-09T05:53:15.607Z,45.62
2023-05-09T05:54:15.761Z,45.72
2023-05-09T05:55:15.979Z,45.79
2023-05-09T05:56:15.751Z,45.66
2023-05-09T05:57:15.799Z,45.70
2023-05-09T05:58:15.850Z,45.71
2023-05-09T05:59:15.886Z,45.71
2023-05-09T06:00:15.942Z,45.71
2023-05-09T06:01:15.966Z,45.65
2023-05-09T06:02:16.064Z,45.65
2023-05-09T06:03:16.208Z,45.68
2023-05-09T06:04:16.200Z,45.68
2023-05-09T06:05:16.416Z,45.63
2023-05-09T06:06:16.174Z,45.92
2023-05-09T06:07:16.219Z,46.21
2023-05-09T06:08:16.272Z,46.58
2023-05-09T06:09:16.299Z,46.45
2023-05-09T06:10:16.443Z,46.29
2023-05-09T06:11:16.406Z,46.25
2023-05-09T06:12:16.462Z,46.31
2023-05-09T06:13:16.575Z,46.31
2023-05-09T06:14:16.603Z,46.32
2023-05-09T06:15:16.833Z,46.26
2023-05-09T06:16:20.073Z,46.21
2023-05-09T06:17:16.943Z,46.20
2023-05-09T06:18:16.681Z,45.83
2023-05-09T06:19:16.656Z,45.77
2023-05-09T06:20:16.650Z,45.79
2023-05-09T06:21:16.635Z,45.93
2023-05-09T06:22:16.646Z,45.96
2023-05-09T06:23:16.612Z,46.12
2023-05-09T06:24:27.612Z,46.15
2023-05-09T06:25:17.635Z,46.14
2023-05-09T06:26:16.690Z,46.26
2023-05-09T06:27:16.590Z,46.14
2023-05-09T06:28:16.585Z,46.00
2023-05-09T06:29:16.587Z,45.81
2023-05-09T06:30:25.356Z,45.74
2023-05-09T06:31:17.590Z,45.71
2023-05-09T06:32:16.548Z,45.95
2023-05-09T06:33:16.536Z,45.78
2023-05-09T06:34:16.539Z,45.93
2023-05-09T06:35:16.689Z,45.96
2023-05-09T06:36:16.525Z,45.98
2023-05-09T06:37:16.514Z,45.97
2023-05-09T06:38:16.509Z,45.85
2023-05-09T06:39:16.495Z,45.69
2023-05-09T06:40:16.552Z,45.73
2023-05-09T06:41:16.598Z,45.67
2023-05-09T06:42:16.705Z,45.70
2023-05-09T06:43:16.710Z,45.70
2023-05-09T06:44:16.757Z,45.75
2023-05-09T06:45:17.274Z,45.77
2023-05-09T06:46:16.875Z,45.81
2023-05-09T06:47:16.894Z,45.82
2023-05-09T06:48:16.953Z,45.82
2023-05-09T06:49:17.009Z,45.82
2023-05-09T06:50:17.050Z,45.82
2023-05-09T06:51:17.114Z,45.87
2023-05-09T06:52:17.156Z,45.89
2023-05-09T06:53:17.253Z,45.95
2023-05-09T06:54:17.268Z,45.96
2023-05-09T06:55:17.457Z,45.95
2023-05-09T06:56:19.928Z,45.99
2023-05-09T06:57:17.381Z,45.93
2023-05-09T06:58:17.460Z,45.87
2023-05-09T06:59:17.369Z,46.00
2023-05-09T07:00:17.365Z,46.06
2023-05-09T07:01:17.393Z,46.06
2023-05-09T07:02:17.349Z,46.02
2023-05-09T07:03:17.338Z,45.97
2023-05-09T07:04:17.337Z,45.98
2023-05-09T07:05:17.568Z,46.12
2023-05-09T07:06:17.315Z,46.05
2023-05-09T07:07:17.294Z,46.09
2023-05-09T07:08:17.304Z,46.04
2023-05-09T07:09:17.292Z,46.10
2023-05-09T07:10:17.272Z,46.12
2023-05-09T07:11:17.270Z,46.09
2023-05-09T07:12:17.262Z,46.12
2023-05-09T07:13:17.313Z,46.16
2023-05-09T07:14:17.348Z,46.26
2023-05-09T07:15:25.900Z,46.83
2023-05-09T07:16:18.266Z,47.65
2023-05-09T07:17:23.276Z,47.81
2023-05-09T07:18:18.277Z,47.71
2023-05-09T07:19:17.217Z,47.60
2023-05-09T07:20:17.247Z,47.73
2023-05-09T07:21:17.202Z,47.62
2023-05-09T07:22:17.218Z,47.48
2023-05-09T07:23:17.196Z,47.45
2023-05-09T07:24:17.296Z,47.36
2023-05-09T07:25:17.286Z,47.22
2023-05-09T07:26:17.177Z,46.87
2023-05-09T07:27:17.155Z,47.38
2023-05-09T07:28:17.193Z,47.33
2023-05-09T07:29:17.226Z,47.30
2023-05-09T07:30:17.589Z,47.17
2023-05-09T07:31:17.364Z,47.00
2023-05-09T07:32:17.370Z,46.96
2023-05-09T07:33:17.420Z,46.93
2023-05-09T07:34:17.445Z,46.83
2023-05-09T07:35:17.487Z,47.15
2023-05-09T07:36:17.526Z,47.15
2023-05-09T07:37:17.570Z,46.96
2023-05-09T07:38:17.646Z,46.78
2023-05-09T07:39:17.651Z,46.81
2023-05-09T07:40:17.901Z,46.81
2023-05-09T07:41:17.722Z,46.82
2023-05-09T07:42:17.767Z,46.72
2023-05-09T07:43:17.830Z,46.69
2023-05-09T07:44:17.842Z,46.70
2023-05-09T07:45:18.796Z,46.70
2023-05-09T07:46:18.054Z,46.70
2023-05-09T07:47:17.930Z,46.67
2023-05-09T07:48:17.970Z,46.67
2023-05-09T07:49:18.007Z,46.60
2023-05-09T07:50:18.108Z,46.63
2023-05-09T07:51:18.082Z,46.64
2023-05-09T07:52:18.125Z,46.62
2023-05-09T07:53:18.149Z,46.63
2023-05-09T07:54:18.194Z,46.62
2023-05-09T07:55:18.410Z,46.61
2023-05-09T07:56:18.416Z,46.61
2023-05-09T07:57:18.264Z,46.75
2023-05-09T07:58:18.301Z,46.70
2023-05-09T07:59:18.338Z,46.64
2023-05-09T08:00:18.406Z,46.65
2023-05-09T08:01:18.407Z,46.65
2023-05-09T08:02:18.565Z,46.65
2023-05-09T08:03:18.606Z,46.65
2023-05-09T08:04:18.552Z,46.65
2023-05-09T08:05:18.548Z,46.65
2023-05-09T08:06:18.583Z,46.64
2023-05-09T08:07:18.637Z,46.60
2023-05-09T08:08:18.682Z,46.57
2023-05-09T08:09:18.724Z,46.52
2023-05-09T08:10:18.762Z,46.62
2023-05-09T08:11:18.805Z,46.77
2023-05-09T08:12:18.861Z,46.68
2023-05-09T08:13:18.972Z,46.64
2023-05-09T08:14:18.966Z,46.81
2023-05-09T08:15:19.034Z,47.15
2023-05-09T08:16:19.106Z,47.32
2023-05-09T08:17:19.136Z,47.71
2023-05-09T08:18:19.340Z,47.57
2023-05-09T08:19:19.965Z,47.93
2023-05-09T08:20:19.290Z,48.08
2023-05-09T08:21:21.532Z,48.45
2023-05-09T08:22:19.332Z,48.64
2023-05-09T08:23:19.326Z,49.01
2023-05-09T08:24:19.348Z,48.93
2023-05-09T08:25:19.313Z,48.46
2023-05-09T08:26:19.312Z,48.43
2023-05-09T08:27:19.309Z,48.50
2023-05-09T08:28:19.290Z,48.33
2023-05-09T08:29:19.288Z,48.02
2023-05-09T08:30:19.266Z,47.81
2023-05-09T08:31:19.291Z,47.71
2023-05-09T08:32:19.244Z,47.87
2023-05-09T08:33:19.258Z,47.89
2023-05-09T08:34:19.327Z,47.95
2023-05-09T08:35:19.205Z,47.87
2023-05-09T08:36:19.197Z,47.90
2023-05-09T08:37:19.198Z,47.94
2023-05-09T08:38:19.207Z,47.92
2023-05-09T08:39:19.198Z,47.83
2023-05-09T08:40:19.186Z,47.81
2023-05-09T08:41:19.177Z,47.84
2023-05-09T08:42:19.173Z,47.87
2023-05-09T08:43:19.134Z,47.84
2023-05-09T08:44:19.132Z,47.81
2023-05-09T08:45:19.203Z,47.82
2023-05-09T08:46:19.134Z,47.72
2023-05-09T08:47:19.104Z,47.71
2023-05-09T08:48:19.185Z,47.63
2023-05-09T08:49:19.546Z,47.52
2023-05-09T08:50:19.186Z,47.44
2023-05-09T08:51:19.078Z,47.38
2023-05-09T08:52:19.065Z,47.31
2023-05-09T08:53:19.054Z,47.22
2023-05-09T08:54:20.697Z,47.22
2023-05-09T08:55:19.046Z,47.14
2023-05-09T08:56:19.098Z,47.17
2023-05-09T08:57:19.140Z,47.05
2023-05-09T08:58:18.992Z,47.00
2023-05-09T08:59:19.051Z,46.85
2023-05-09T09:00:20.620Z,46.74
2023-05-09T09:01:18.990Z,46.68
2023-05-09T09:02:18.966Z,46.55
2023-05-09T09:03:18.966Z,46.43
2023-05-09T09:04:19.045Z,46.42
2023-05-09T09:05:39.270Z,46.29
2023-05-09T09:06:20.025Z,46.18
2023-05-09T09:07:18.932Z,46.17
2023-05-09T09:08:18.947Z,46.10
2023-05-09T09:09:18.928Z,46.07
2023-05-09T09:10:18.906Z,46.04
2023-05-09T09:11:18.972Z,46.00
2023-05-09T09:12:18.895Z,46.01
2023-05-09T09:13:19.845Z,45.93
2023-05-09T09:14:18.942Z,45.89
2023-05-09T09:15:18.884Z,45.89
2023-05-09T09:16:18.964Z,46.45
2023-05-09T09:17:19.913Z,46.80
2023-05-09T09:18:18.904Z,46.99
2023-05-09T09:19:18.899Z,47.05
2023-05-09T09:20:18.912Z,47.19
2023-05-09T09:21:18.919Z,47.14
2023-05-09T09:22:18.977Z,47.23
2023-05-09T09:23:18.938Z,47.14
2023-05-09T09:24:18.885Z,47.30
2023-05-09T09:25:18.885Z,47.52
2023-05-09T09:26:18.936Z,47.39
2023-05-09T09:27:18.865Z,47.37
2023-05-09T09:28:18.900Z,47.22
2023-05-09T09:29:18.885Z,47.37
2023-05-09T09:30:18.986Z,47.38
2023-05-09T09:31:19.032Z,47.50
2023-05-09T09:32:19.030Z,47.20
2023-05-09T09:33:18.984Z,47.38
2023-05-09T09:34:18.989Z,47.44
2023-05-09T09:35:19.006Z,47.37
2023-05-09T09:36:19.023Z,47.28
2023-05-09T09:37:19.066Z,47.17
2023-05-09T09:38:19.163Z,47.10
2023-05-09T09:39:19.109Z,46.94
2023-05-09T09:40:19.208Z,46.89
2023-05-09T09:41:19.200Z,46.75
2023-05-09T09:42:19.201Z,46.79
2023-05-09T09:43:19.254Z,46.66
2023-05-09T09:44:19.292Z,46.56
2023-05-09T09:45:19.306Z,46.56
2023-05-09T09:46:19.439Z,46.43
2023-05-09T09:47:21.091Z,46.37
2023-05-09T09:48:20.374Z,46.47
2023-05-09T09:49:19.414Z,46.34
2023-05-09T09:50:19.390Z,46.27
2023-05-09T09:51:19.332Z,46.29
2023-05-09T09:52:19.335Z,46.31
2023-05-09T09:53:19.307Z,46.32
2023-05-09T09:54:19.389Z,46.37
2023-05-09T09:55:19.316Z,46.38
2023-05-09T09:56:19.291Z,46.36
2023-05-09T09:57:19.272Z,46.36
2023-05-09T09:58:19.288Z,46.30
2023-05-09T09:59:19.319Z,46.27
2023-05-09T10:00:19.307Z,46.41
2023-05-09T10:01:19.308Z,46.45
2023-05-09T10:02:19.232Z,46.31
2023-05-09T10:03:19.401Z,46.17
2023-05-09T10:04:19.229Z,46.08
2023-05-09T10:05:19.218Z,46.08
2023-05-09T10:06:19.212Z,45.98
2023-05-09T10:07:19.204Z,45.94
2023-05-09T10:08:19.205Z,45.85
2023-05-09T10:09:19.222Z,45.91
2023-05-09T10:10:19.380Z,46.09
2023-05-09T10:11:19.182Z,46.43
2023-05-09T10:12:19.177Z,46.70
2023-05-09T10:13:19.344Z,46.48
2023-05-09T10:14:19.176Z,46.63
2023-05-09T10:15:19.168Z,46.45
2023-05-09T10:16:21.458Z,46.31
2023-05-09T10:17:20.235Z,46.25
2023-05-09T10:18:19.253Z,46.43
2023-05-09T10:19:19.156Z,46.37
2023-05-09T10:20:19.251Z,46.04
2023-05-09T10:21:19.155Z,45.83
2023-05-09T10:22:19.135Z,45.80
2023-05-09T10:23:19.139Z,45.78
2023-05-09T10:24:19.144Z,45.78
2023-05-09T10:25:19.123Z,45.76
2023-05-09T10:26:19.220Z,45.74
2023-05-09T10:27:19.130Z,45.78
2023-05-09T10:28:19.113Z,45.79
2023-05-09T10:29:19.115Z,45.80
2023-05-09T10:30:19.125Z,45.76
2023-05-09T10:31:19.164Z,45.74
2023-05-09T10:32:19.087Z,45.78
2023-05-09T10:33:19.116Z,45.81
2023-05-09T10:34:19.137Z,45.83
2023-05-09T10:35:19.161Z,45.85
2023-05-09T10:36:19.197Z,45.91
2023-05-09T10:37:19.253Z,45.81
2023-05-09T10:38:19.265Z,45.80
2023-05-09T10:39:19.350Z,45.81
2023-05-09T10:40:19.346Z,45.74
2023-05-09T10:41:19.386Z,45.90
2023-05-09T10:42:19.522Z,45.99
2023-05-09T10:43:19.441Z,45.78
2023-05-09T10:44:19.484Z,45.64
